Terminal Aerodrome Forecast
Issued by NWS

Home | Current Version | Previous Version | Text Only | Print | Product List | Glossary On
Versions: 1 2 3 4 5 6 7 8 9 10 11 12 13 14 15 16 17 18 19 20
000
FTUS46 KMTR 231722
TAFMRY
TAF
KMRY 231722Z 2318/2418 30006KT P6SM SKC
     FM232100 27009KT P6SM SKC
     FM240200 25008KT P6SM SCT008
     FM240300 24006KT P6SM BKN006
     FM240600 VRB03KT P6SM OVC003
     FM241000 VRB02KT 5SM BR OVC002
     FM241400 00000KT 1SM BR OVC002
     FM241700 29004KT P6SM FEW010=

USA.gov is the U.S. government's official web portal to all federal, state and local government web resources and services.